createdAt,value
2019-06-01T00:02:24.096Z,28.00
2019-06-01T00:04:54.937Z,28.00
2019-06-01T00:07:25.940Z,28.10
2019-06-01T00:09:57.119Z,28.00
2019-06-01T00:12:27.988Z,28.10
2019-06-01T00:14:58.855Z,28.00
2019-06-01T00:17:32.367Z,28.10
2019-06-01T00:20:12.359Z,28.10
2019-06-01T00:22:41.225Z,28.10
2019-06-01T00:25:12.115Z,28.10
2019-06-01T00:27:43.036Z,28.10
2019-06-01T00:30:26.174Z,28.10
2019-06-01T00:32:47.205Z,28.10
2019-06-01T00:35:18.366Z,28.20
2019-06-01T00:37:50.183Z,28.10
2019-06-01T00:40:21.048Z,28.10
2019-06-01T00:42:52.482Z,28.20
2019-06-01T00:45:23.493Z,28.20
2019-06-01T00:47:54.380Z,28.20
2019-06-01T00:50:27.058Z,28.20
2019-06-01T00:52:59.364Z,28.30
2019-06-01T00:55:30.227Z,28.30
2019-06-01T00:58:01.027Z,28.30
2019-06-01T01:00:43.143Z,28.30
2019-06-01T01:03:04.282Z,28.30
2019-06-01T01:05:35.222Z,28.40
2019-06-01T01:08:06.135Z,28.40
2019-06-01T01:10:37.296Z,28.50
2019-06-01T01:13:09.622Z,28.50
2019-06-01T01:15:41.046Z,28.50
2019-06-01T01:18:11.994Z,28.50
2019-06-01T01:20:43.423Z,28.50
2019-06-01T01:23:14.318Z,28.60
2019-06-01T01:25:46.281Z,28.60
2019-06-01T01:28:18.728Z,28.60
2019-06-01T01:31:02.672Z,28.60
2019-06-01T01:33:21.914Z,28.70
2019-06-01T01:35:54.091Z,28.70
2019-06-01T01:38:44.088Z,28.70
2019-06-01T01:41:14.993Z,28.80
2019-06-01T01:43:46.052Z,28.80
2019-06-01T01:46:17.168Z,28.80
2019-06-01T01:48:48.063Z,28.90
2019-06-01T01:51:19.188Z,28.90
2019-06-01T01:53:50.565Z,28.90
2019-06-01T01:56:21.550Z,28.90
2019-06-01T01:58:52.650Z,29.00
2019-06-01T02:01:23.457Z,29.00
2019-06-01T02:03:55.500Z,29.00
2019-06-01T02:06:29.026Z,29.00
2019-06-01T02:08:59.359Z,29.10
2019-06-01T02:11:51.368Z,29.20
2019-06-01T02:14:22.405Z,29.10
2019-06-01T02:16:53.939Z,29.10
2019-06-01T02:19:25.158Z,29.10
2019-06-01T02:21:56.471Z,29.10
2019-06-01T02:24:28.730Z,29.10
2019-06-01T02:27:01.145Z,29.20
2019-06-01T02:29:32.458Z,29.20
2019-06-01T02:32:04.749Z,29.20
2019-06-01T02:34:35.398Z,29.30
2019-06-01T02:37:06.086Z,29.30
2019-06-01T02:39:37.139Z,29.40
2019-06-01T02:42:09.365Z,29.40
2019-06-01T02:44:40.272Z,29.40
2019-06-01T02:47:10.988Z,29.40
2019-06-01T02:49:43.083Z,29.40
2019-06-01T02:52:14.158Z,29.50
2019-06-01T02:54:44.955Z,29.50
2019-06-01T02:57:15.931Z,29.40
2019-06-01T02:59:46.935Z,29.50
2019-06-01T03:02:18.131Z,29.50
2019-06-01T03:04:48.979Z,29.50
2019-06-01T03:07:19.986Z,29.60
2019-06-01T03:09:52.044Z,29.60
2019-06-01T03:12:22.837Z,29.60
2019-06-01T03:14:54.148Z,29.70
2019-06-01T03:17:27.228Z,29.70
2019-06-01T03:19:59.530Z,29.70
2019-06-01T03:22:30.737Z,29.80
2019-06-01T03:25:02.154Z,29.80
2019-06-01T03:27:33.336Z,29.90
2019-06-01T03:30:06.839Z,29.90
2019-06-01T03:32:37.944Z,30.00
2019-06-01T03:35:08.963Z,30.00
2019-06-01T03:37:39.994Z,30.10
2019-06-01T03:40:19.694Z,30.20
2019-06-01T03:42:43.342Z,30.20
2019-06-01T03:45:14.467Z,30.20
2019-06-01T03:47:45.763Z,30.30
2019-06-01T03:50:16.499Z,30.40
2019-06-01T03:52:47.385Z,30.50
2019-06-01T03:55:18.063Z,30.60
2019-06-01T03:57:48.881Z,30.70
2019-06-01T04:00:19.866Z,30.70
2019-06-01T04:02:51.023Z,30.80
2019-06-01T04:05:21.783Z,30.80
2019-06-01T04:07:53.575Z,30.80
2019-06-01T04:10:24.585Z,30.90
2019-06-01T04:12:55.697Z,31.00
2019-06-01T04:15:26.632Z,31.10
2019-06-01T04:17:57.556Z,31.20
2019-06-01T04:20:28.522Z,31.20
2019-06-01T04:22:59.816Z,31.30
2019-06-01T04:25:31.924Z,31.40
2019-06-01T04:28:03.917Z,31.50
2019-06-01T04:30:36.447Z,31.50
2019-06-01T04:33:08.892Z,31.60
2019-06-01T04:35:40.133Z,31.60
2019-06-01T04:38:11.258Z,31.60
2019-06-01T04:40:42.448Z,31.70
2019-06-01T04:43:14.197Z,31.70
2019-06-01T04:45:45.442Z,31.80
2019-06-01T04:48:16.411Z,31.80
2019-06-01T04:50:47.331Z,31.80
2019-06-01T04:53:18.192Z,31.80
2019-06-01T04:55:49.126Z,31.80
2019-06-01T04:58:20.155Z,31.80
2019-06-01T05:00:50.949Z,31.80
2019-06-01T05:03:22.058Z,31.80
2019-06-01T05:05:53.029Z,31.80
2019-06-01T05:08:24.069Z,31.80
2019-06-01T05:10:54.754Z,31.90
2019-06-01T05:13:25.596Z,31.90
2019-06-01T05:15:56.723Z,32.00
2019-06-01T05:18:27.904Z,32.00
2019-06-01T05:20:59.017Z,32.00
2019-06-01T05:23:30.269Z,32.00
2019-06-01T05:26:01.150Z,32.00
2019-06-01T05:28:32.324Z,32.00
2019-06-01T05:31:04.769Z,32.00
2019-06-01T05:33:37.666Z,32.00
2019-06-01T05:36:26.875Z,32.10
2019-06-01T05:38:58.553Z,32.10
2019-06-01T05:41:29.487Z,32.10
2019-06-01T05:44:00.435Z,32.10
2019-06-01T05:46:32.161Z,32.10
2019-06-01T05:49:04.141Z,32.20
2019-06-01T05:51:34.989Z,32.20
2019-06-01T05:54:05.782Z,32.20
2019-06-01T05:56:36.666Z,32.20
2019-06-01T05:59:07.437Z,32.10
2019-06-01T06:01:38.232Z,32.10
2019-06-01T06:04:09.055Z,32.10
2019-06-01T06:06:39.921Z,32.10
2019-06-01T06:09:11.343Z,32.10
2019-06-01T06:11:42.624Z,32.20
2019-06-01T06:14:13.763Z,32.20
2019-06-01T06:16:45.022Z,32.30
2019-06-01T06:19:20.271Z,32.30
2019-06-01T06:21:48.357Z,32.40
2019-06-01T06:24:20.518Z,32.50
2019-06-01T06:26:51.534Z,32.60
2019-06-01T06:29:22.954Z,32.60
2019-06-01T06:31:55.164Z,32.60
2019-06-01T06:34:26.179Z,32.70
2019-06-01T06:36:57.106Z,32.70
2019-06-01T06:39:27.960Z,32.70
2019-06-01T06:41:58.692Z,32.70
2019-06-01T06:44:29.738Z,32.70
2019-06-01T06:47:00.702Z,32.70
2019-06-01T06:49:31.496Z,32.80
2019-06-01T06:52:02.722Z,32.80
2019-06-01T06:54:33.752Z,32.90
2019-06-01T06:57:04.630Z,33.00
2019-06-01T06:59:35.664Z,33.00
2019-06-01T07:02:06.700Z,32.90
2019-06-01T07:04:37.720Z,32.90
2019-06-01T07:07:08.621Z,33.00
2019-06-01T07:09:39.939Z,33.00
2019-06-01T07:12:10.747Z,33.10
2019-06-01T07:14:41.798Z,33.20
2019-06-01T07:17:15.578Z,33.20
2019-06-01T07:19:45.056Z,33.30
2019-06-01T07:22:17.052Z,33.30
2019-06-01T07:24:48.591Z,33.40
2019-06-01T07:27:19.910Z,33.50
2019-06-01T07:29:50.958Z,33.50
2019-06-01T07:32:24.636Z,33.60
2019-06-01T07:34:55.365Z,33.60
2019-06-01T07:37:26.454Z,33.70
2019-06-01T07:39:57.446Z,33.60
2019-06-01T07:42:29.412Z,33.60
2019-06-01T07:45:00.419Z,33.60
2019-06-01T07:47:31.307Z,33.70
2019-06-01T07:50:02.216Z,33.70
2019-06-01T07:52:33.222Z,33.70
2019-06-01T07:55:04.130Z,33.70
2019-06-01T07:57:35.114Z,33.70
2019-06-01T08:00:07.917Z,33.50
2019-06-01T08:02:39.021Z,33.50
2019-06-01T08:05:09.999Z,33.40
2019-06-01T08:07:40.986Z,33.40
2019-06-01T08:10:12.019Z,33.30
2019-06-01T08:12:42.768Z,33.30
2019-06-01T08:15:14.800Z,33.40
2019-06-01T08:17:45.752Z,33.30
2019-06-01T08:20:16.688Z,33.30
2019-06-01T08:22:47.520Z,33.20
2019-06-01T08:25:18.839Z,33.20
2019-06-01T08:27:49.709Z,33.20
2019-06-01T08:30:20.737Z,33.10
2019-06-01T08:32:53.002Z,33.10
2019-06-01T08:35:24.854Z,33.00
2019-06-01T08:37:55.691Z,33.00
2019-06-01T08:40:27.382Z,33.00
2019-06-01T08:42:58.528Z,33.00
2019-06-01T08:45:29.687Z,33.00
2019-06-01T08:48:00.848Z,32.90
2019-06-01T08:50:31.912Z,32.80
2019-06-01T08:53:02.862Z,32.80
2019-06-01T08:55:34.454Z,32.80
2019-06-01T08:58:05.263Z,32.70
2019-06-01T09:00:36.198Z,32.60
2019-06-01T09:03:07.141Z,32.50
2019-06-01T09:05:38.156Z,32.50
2019-06-01T09:08:09.123Z,32.40
2019-06-01T09:10:39.889Z,32.40
2019-06-01T09:13:31.263Z,32.50
2019-06-01T09:16:02.332Z,32.40
2019-06-01T09:18:33.707Z,32.30
2019-06-01T09:21:04.705Z,32.30
2019-06-01T09:23:37.471Z,32.20
2019-06-01T09:26:09.079Z,32.10
2019-06-01T09:28:39.986Z,32.00
2019-06-01T09:31:10.617Z,31.90
2019-06-01T09:33:42.802Z,31.80
2019-06-01T09:36:13.780Z,31.80
2019-06-01T09:38:44.627Z,31.70
2019-06-01T09:41:15.360Z,31.70
2019-06-01T09:43:46.306Z,31.70
2019-06-01T09:46:17.602Z,31.70
2019-06-01T09:48:48.601Z,31.70
2019-06-01T09:51:19.643Z,31.60
2019-06-01T09:53:50.535Z,31.60
2019-06-01T09:56:21.485Z,31.60
2019-06-01T09:58:52.434Z,31.60
2019-06-01T10:01:23.618Z,31.60
2019-06-01T10:03:54.571Z,31.50
2019-06-01T10:06:25.432Z,31.50
2019-06-01T10:08:56.100Z,31.50
2019-06-01T10:11:26.830Z,31.50
2019-06-01T10:13:57.565Z,31.40
2019-06-01T10:16:28.352Z,31.40
2019-06-01T10:18:59.280Z,31.40
2019-06-01T10:21:30.205Z,31.40
2019-06-01T10:24:01.541Z,31.30
2019-06-01T10:26:33.997Z,31.30
2019-06-01T10:29:04.806Z,31.30
2019-06-01T10:31:39.699Z,31.30
2019-06-01T10:34:09.272Z,31.30
2019-06-01T10:36:40.298Z,31.30
2019-06-01T10:39:11.176Z,31.30
2019-06-01T10:41:41.903Z,31.30
2019-06-01T10:44:12.846Z,31.20
2019-06-01T10:46:43.879Z,31.20
2019-06-01T10:49:14.772Z,31.20
2019-06-01T10:51:45.650Z,31.20
2019-06-01T10:54:16.453Z,31.20
2019-06-01T10:56:47.422Z,31.20
2019-06-01T10:59:18.239Z,31.20
2019-06-01T11:01:49.076Z,31.20
2019-06-01T11:04:20.371Z,31.20
2019-06-01T11:06:51.651Z,31.20
2019-06-01T11:09:22.670Z,31.20
2019-06-01T11:11:53.819Z,31.20
2019-06-01T11:14:24.988Z,31.20
2019-06-01T11:16:56.690Z,31.20
2019-06-01T11:19:49.075Z,31.10
2019-06-01T11:22:20.054Z,31.10
2019-06-01T11:24:50.697Z,31.10
2019-06-01T11:27:21.841Z,31.10
2019-06-01T11:29:52.570Z,31.00
2019-06-01T11:32:23.674Z,31.00
2019-06-01T11:34:55.818Z,31.00
2019-06-01T11:37:26.670Z,31.00
2019-06-01T11:39:57.335Z,31.00
2019-06-01T11:42:28.042Z,30.90
2019-06-01T11:44:58.778Z,30.90
2019-06-01T11:47:29.591Z,30.90
2019-06-01T11:50:00.180Z,31.00
2019-06-01T11:52:31.139Z,30.90
2019-06-01T11:55:01.805Z,30.90
2019-06-01T11:57:32.512Z,30.90
2019-06-01T12:00:03.643Z,30.80
2019-06-01T12:02:35.412Z,30.80
2019-06-01T12:05:08.496Z,30.80
2019-06-01T12:07:38.077Z,30.70
2019-06-01T12:10:09.265Z,30.80
2019-06-01T12:12:40.367Z,30.70
2019-06-01T12:15:11.271Z,30.70
2019-06-01T12:17:43.189Z,30.70
2019-06-01T12:20:14.025Z,30.70
2019-06-01T12:22:47.106Z,30.70
2019-06-01T12:25:18.388Z,30.60
2019-06-01T12:27:49.367Z,30.60
2019-06-01T12:30:20.604Z,30.60
2019-06-01T12:32:51.355Z,30.60
2019-06-01T12:35:23.408Z,30.60
2019-06-01T12:38:05.697Z,30.50
2019-06-01T12:40:26.207Z,30.50
2019-06-01T12:42:56.912Z,30.40
2019-06-01T12:45:27.625Z,30.40
2019-06-01T12:47:58.746Z,30.40
2019-06-01T12:50:29.637Z,30.40
2019-06-01T12:53:00.269Z,30.40
2019-06-01T12:55:31.165Z,30.40
2019-06-01T12:58:02.155Z,30.40
2019-06-01T13:00:33.239Z,30.40
2019-06-01T13:03:07.853Z,30.40
2019-06-01T13:05:36.595Z,30.30
2019-06-01T13:08:08.372Z,30.30
2019-06-01T13:10:38.999Z,30.30
2019-06-01T13:13:09.820Z,30.30
2019-06-01T13:15:41.188Z,30.30
2019-06-01T13:18:11.982Z,30.30
2019-06-01T13:20:43.287Z,30.30
2019-06-01T13:23:14.192Z,30.30
2019-06-01T13:25:45.623Z,30.30
2019-06-01T13:28:17.100Z,30.30
2019-06-01T13:30:49.253Z,30.20
2019-06-01T13:33:20.259Z,30.20
2019-06-01T13:35:52.645Z,30.20
2019-06-01T13:38:23.377Z,30.20
2019-06-01T13:40:54.317Z,30.20
2019-06-01T13:43:25.241Z,30.10
2019-06-01T13:45:55.917Z,30.10
2019-06-01T13:48:26.736Z,30.10
2019-06-01T13:50:57.388Z,30.10
2019-06-01T13:53:28.065Z,30.00
2019-06-01T13:55:58.734Z,30.00
2019-06-01T13:58:29.439Z,29.90
2019-06-01T14:01:00.200Z,29.90
2019-06-01T14:03:30.916Z,29.90
2019-06-01T14:06:01.677Z,29.90
2019-06-01T14:08:32.319Z,29.90
2019-06-01T14:11:02.980Z,29.90
2019-06-01T14:13:33.655Z,29.90
2019-06-01T14:16:04.533Z,29.90
2019-06-01T14:18:35.254Z,29.90
2019-06-01T14:21:05.989Z,29.90
2019-06-01T14:23:36.721Z,29.90
2019-06-01T14:26:07.802Z,29.80
2019-06-01T14:28:38.894Z,29.80
2019-06-01T14:31:10.502Z,29.80
2019-06-01T14:33:41.271Z,29.80
2019-06-01T14:36:13.259Z,29.80
2019-06-01T14:38:47.745Z,29.80
2019-06-01T14:41:16.158Z,29.80
2019-06-01T14:43:46.928Z,29.70
2019-06-01T14:46:17.720Z,29.60
2019-06-01T14:48:49.368Z,29.50
2019-06-01T14:51:20.155Z,29.30
2019-06-01T14:53:51.644Z,29.30
2019-06-01T14:56:22.521Z,29.20
2019-06-01T14:58:53.961Z,29.20
2019-06-01T15:01:32.401Z,29.10
2019-06-01T15:03:58.347Z,29.20
2019-06-01T15:06:29.669Z,29.00
2019-06-01T15:09:17.079Z,29.00
2019-06-01T15:11:36.135Z,28.80
2019-06-01T15:14:09.034Z,28.70
2019-06-01T15:16:39.140Z,28.60
2019-06-01T15:19:09.859Z,28.60
2019-06-01T15:21:40.984Z,28.60
2019-06-01T15:24:12.020Z,28.70
2019-06-01T15:26:43.061Z,28.70
2019-06-01T15:29:14.235Z,28.60
2019-06-01T15:31:45.024Z,28.60
2019-06-01T15:34:18.460Z,28.70
2019-06-01T15:36:51.575Z,28.60
2019-06-01T15:39:25.112Z,28.60
2019-06-01T15:41:55.183Z,28.60
2019-06-01T15:44:26.154Z,28.60
2019-06-01T15:46:57.727Z,28.60
2019-06-01T15:49:29.424Z,28.70
2019-06-01T15:52:00.182Z,28.70
2019-06-01T15:54:30.883Z,28.70
2019-06-01T15:57:02.586Z,28.60
2019-06-01T15:59:33.466Z,28.60
2019-06-01T16:02:04.140Z,28.60
2019-06-01T16:04:34.779Z,28.60
2019-06-01T16:07:05.456Z,28.60
2019-06-01T16:09:42.500Z,28.60
2019-06-01T16:12:08.190Z,28.60
2019-06-01T16:14:38.929Z,28.60
2019-06-01T16:17:09.592Z,28.60
2019-06-01T16:19:40.261Z,28.60
2019-06-01T16:22:10.921Z,28.60
2019-06-01T16:24:41.613Z,28.60
2019-06-01T16:27:12.452Z,28.60
2019-06-01T16:29:43.694Z,28.60
2019-06-01T16:32:14.433Z,28.60
2019-06-01T16:34:45.167Z,28.70
2019-06-01T16:37:17.202Z,28.60
2019-06-01T16:39:58.744Z,28.60
2019-06-01T16:42:19.868Z,28.60
2019-06-01T16:44:50.525Z,28.70
2019-06-01T16:47:21.202Z,28.70
2019-06-01T16:49:51.975Z,28.70
2019-06-01T16:52:22.641Z,28.70
2019-06-01T16:54:53.296Z,28.80
2019-06-01T16:57:23.975Z,28.80
2019-06-01T16:59:56.245Z,28.80
2019-06-01T17:02:27.029Z,28.80
2019-06-01T17:04:58.550Z,28.80
2019-06-01T17:07:29.376Z,28.80
2019-06-01T17:10:18.421Z,28.80
2019-06-01T17:12:32.410Z,28.80
2019-06-01T17:15:03.258Z,28.80
2019-06-01T17:17:34.079Z,28.80
2019-06-01T17:20:07.267Z,28.80
2019-06-01T17:22:38.139Z,28.80
2019-06-01T17:25:08.780Z,28.80
2019-06-01T17:27:39.415Z,28.80
2019-06-01T17:30:12.079Z,28.70
2019-06-01T17:32:42.512Z,28.80
2019-06-01T17:35:13.222Z,28.70
2019-06-01T17:37:45.107Z,28.70
2019-06-01T17:40:15.906Z,28.70
2019-06-01T17:42:46.612Z,28.80
2019-06-01T17:45:17.363Z,28.70
2019-06-01T17:47:48.050Z,28.80
2019-06-01T17:50:20.062Z,28.80
2019-06-01T17:52:50.840Z,28.80
2019-06-01T17:55:24.121Z,28.70
2019-06-01T17:57:54.751Z,28.70
2019-06-01T18:00:25.537Z,28.60
2019-06-01T18:02:56.492Z,28.60
2019-06-01T18:05:27.200Z,28.60
2019-06-01T18:07:57.915Z,28.60
2019-06-01T18:10:28.574Z,28.60
2019-06-01T18:12:59.194Z,28.60
2019-06-01T18:15:29.853Z,28.60
2019-06-01T18:18:00.572Z,28.60
2019-06-01T18:20:31.246Z,28.60
2019-06-01T18:23:02.348Z,28.60
2019-06-01T18:25:33.081Z,28.60
2019-06-01T18:28:04.504Z,28.60
2019-06-01T18:30:35.625Z,28.60
2019-06-01T18:33:07.119Z,28.60
2019-06-01T18:35:37.971Z,28.50
2019-06-01T18:38:09.829Z,28.60
2019-06-01T18:40:40.633Z,28.60
2019-06-01T18:43:14.316Z,28.50
2019-06-01T18:45:46.214Z,28.60
2019-06-01T18:48:17.485Z,28.60
2019-06-01T18:50:48.144Z,28.60
2019-06-01T18:53:18.962Z,28.60
2019-06-01T18:55:49.739Z,28.60
2019-06-01T18:58:20.430Z,28.50
2019-06-01T19:00:51.180Z,28.50
2019-06-01T19:03:21.866Z,28.50
2019-06-01T19:05:52.495Z,28.50
2019-06-01T19:08:23.165Z,28.40
2019-06-01T19:10:54.016Z,28.40
2019-06-01T19:13:24.724Z,28.30
2019-06-01T19:15:55.367Z,28.20
2019-06-01T19:18:26.157Z,28.30
2019-06-01T19:20:56.857Z,28.20
2019-06-01T19:23:27.614Z,28.30
2019-06-01T19:25:59.755Z,28.30
2019-06-01T19:28:30.397Z,28.20
2019-06-01T19:31:01.830Z,28.20
2019-06-01T19:33:32.846Z,28.30
2019-06-01T19:36:03.550Z,28.30
2019-06-01T19:38:35.939Z,28.30
2019-06-01T19:41:07.420Z,28.30
2019-06-01T19:43:38.186Z,28.30
2019-06-01T19:46:09.686Z,28.30
2019-06-01T19:48:40.448Z,28.40
2019-06-01T19:51:12.377Z,28.30
2019-06-01T19:53:43.196Z,28.40
2019-06-01T19:56:14.985Z,28.30
2019-06-01T19:58:45.715Z,28.30
2019-06-01T20:01:16.421Z,28.30
2019-06-01T20:03:47.129Z,28.40
2019-06-01T20:06:18.902Z,28.40
2019-06-01T20:08:49.777Z,28.40
2019-06-01T20:11:21.290Z,28.30
2019-06-01T20:13:52.026Z,28.40
2019-06-01T20:16:22.941Z,28.40
2019-06-01T20:18:53.680Z,28.40
2019-06-01T20:21:24.469Z,28.40
2019-06-01T20:23:55.469Z,28.40
2019-06-01T20:26:38.962Z,28.40
2019-06-01T20:28:58.352Z,28.40
2019-06-01T20:31:29.479Z,28.30
2019-06-01T20:34:00.254Z,28.30
2019-06-01T20:36:30.938Z,28.30
2019-06-01T20:39:04.418Z,28.30
2019-06-01T20:41:35.393Z,28.30
2019-06-01T20:44:06.094Z,28.30
2019-06-01T20:46:36.904Z,28.30
2019-06-01T20:49:07.566Z,28.30
2019-06-01T20:51:38.198Z,28.30
2019-06-01T20:54:08.930Z,28.30
2019-06-01T20:56:39.694Z,28.20
2019-06-01T20:59:10.527Z,28.20
2019-06-01T21:01:41.198Z,28.20
2019-06-01T21:04:11.971Z,28.20
2019-06-01T21:06:42.801Z,28.10
2019-06-01T21:09:13.712Z,28.10
2019-06-01T21:11:44.421Z,28.10
2019-06-01T21:14:15.912Z,28.10
2019-06-01T21:16:46.745Z,28.10
2019-06-01T21:19:18.142Z,28.00
2019-06-01T21:21:48.922Z,28.10
2019-06-01T21:24:20.993Z,28.10
2019-06-01T21:26:51.925Z,28.10
2019-06-01T21:29:22.990Z,28.10
2019-06-01T21:31:53.879Z,28.10
2019-06-01T21:34:25.460Z,28.20
2019-06-01T21:36:56.250Z,28.10
2019-06-01T21:39:28.223Z,28.10
2019-06-01T21:41:59.027Z,28.10
2019-06-01T21:44:30.025Z,28.10
2019-06-01T21:47:00.903Z,28.10
2019-06-01T21:49:31.577Z,28.00
2019-06-01T21:52:02.268Z,28.00
2019-06-01T21:54:33.023Z,28.00
2019-06-01T21:57:03.706Z,28.00
2019-06-01T21:59:37.135Z,28.00
2019-06-01T22:02:08.034Z,28.00
2019-06-01T22:04:38.813Z,28.00
2019-06-01T22:07:09.529Z,28.00
2019-06-01T22:09:40.278Z,28.00
2019-06-01T22:12:10.911Z,28.00
2019-06-01T22:14:41.938Z,28.00
2019-06-01T22:17:12.697Z,27.90
2019-06-01T22:19:43.508Z,27.90
2019-06-01T22:22:14.139Z,27.90
2019-06-01T22:24:44.857Z,27.90
2019-06-01T22:27:15.537Z,27.90
2019-06-01T22:29:46.287Z,27.90
2019-06-01T22:32:18.296Z,27.90
2019-06-01T22:34:49.036Z,27.90
2019-06-01T22:37:19.809Z,27.90
2019-06-01T22:39:52.186Z,27.90
2019-06-01T22:42:24.204Z,27.90
2019-06-01T22:44:55.010Z,27.90
2019-06-01T22:47:26.601Z,27.90
2019-06-01T22:49:57.433Z,27.90
2019-06-01T22:52:29.149Z,27.90
2019-06-01T22:54:59.967Z,27.90
2019-06-01T22:57:30.667Z,27.90
2019-06-01T23:00:01.755Z,27.90
2019-06-01T23:02:32.509Z,27.80
2019-06-01T23:05:03.215Z,27.80
2019-06-01T23:07:33.976Z,27.80
2019-06-01T23:10:04.945Z,27.80
2019-06-01T23:12:35.718Z,27.80
2019-06-01T23:15:08.517Z,27.80
2019-06-01T23:17:38.201Z,27.90
2019-06-01T23:20:09.314Z,27.90
2019-06-01T23:22:40.111Z,27.90
2019-06-01T23:25:10.794Z,27.90
2019-06-01T23:27:41.464Z,27.90
2019-06-01T23:30:12.116Z,27.90
2019-06-01T23:32:43.020Z,27.90
2019-06-01T23:35:14.099Z,27.90
2019-06-01T23:37:44.746Z,27.90
2019-06-01T23:40:16.850Z,27.90
2019-06-01T23:42:47.560Z,27.90
2019-06-01T23:45:18.442Z,27.90
2019-06-01T23:47:49.128Z,27.90
2019-06-01T23:50:19.959Z,28.00
2019-06-01T23:52:50.597Z,28.00
2019-06-01T23:55:21.231Z,28.00
2019-06-01T23:57:51.907Z,28.10
